sensor_id;sensor_type;location;lat;lon;timestamp;temperature;humidity
56725;DHT22;42608;52.776;6.968;2023-04-06T00:00:55;4.30;99.90
56725;DHT22;42608;52.776;6.968;2023-04-06T00:03:21;4.20;99.90
56725;DHT22;42608;52.776;6.968;2023-04-06T00:05:47;4.20;99.90
56725;DHT22;42608;52.776;6.968;2023-04-06T00:08:13;4.20;99.90
56725;DHT22;42608;52.776;6.968;2023-04-06T00:10:38;4.10;99.90
56725;DHT22;42608;52.776;6.968;2023-04-06T00:13:05;4.10;99.90
56725;DHT22;42608;52.776;6.968;2023-04-06T00:15:30;4.10;99.90
56725;DHT22;42608;52.776;6.968;2023-04-06T00:17:56;4.00;99.90
56725;DHT22;42608;52.776;6.968;2023-04-06T00:20:22;3.90;99.90
56725;DHT22;42608;52.776;6.968;2023-04-06T00:22:47;3.90;99.90
56725;DHT22;42608;52.776;6.968;2023-04-06T00:25:13;3.90;99.90
56725;DHT22;42608;52.776;6.968;2023-04-06T00:27:40;3.90;99.90
56725;DHT22;42608;52.776;6.968;2023-04-06T00:30:06;3.90;99.90
56725;DHT22;42608;52.776;6.968;2023-04-06T00:32:32;3.80;99.90
56725;DHT22;42608;52.776;6.968;2023-04-06T00:34:58;3.70;99.90
56725;DHT22;42608;52.776;6.968;2023-04-06T00:37:23;3.70;99.90
56725;DHT22;42608;52.776;6.968;2023-04-06T00:39:49;3.70;99.90
56725;DHT22;42608;52.776;6.968;2023-04-06T00:42:16;3.60;99.90
56725;DHT22;42608;52.776;6.968;2023-04-06T00:44:43;3.60;99.90
56725;DHT22;42608;52.776;6.968;2023-04-06T00:47:09;3.60;99.90
56725;DHT22;42608;52.776;6.968;2023-04-06T00:49:34;3.50;99.90
56725;DHT22;42608;52.776;6.968;2023-04-06T00:52:00;3.50;99.90
56725;DHT22;42608;52.776;6.968;2023-04-06T00:54:27;3.50;99.90
56725;DHT22;42608;52.776;6.968;2023-04-06T00:56:52;3.40;99.90
56725;DHT22;42608;52.776;6.968;2023-04-06T00:59:18;3.40;99.90
56725;DHT22;42608;52.776;6.968;2023-04-06T01:01:44;3.40;99.90
56725;DHT22;42608;52.776;6.968;2023-04-06T01:04:09;3.40;99.90
56725;DHT22;42608;52.776;6.968;2023-04-06T01:06:35;3.40;99.90
56725;DHT22;42608;52.776;6.968;2023-04-06T01:09:01;3.40;99.90
56725;DHT22;42608;52.776;6.968;2023-04-06T01:11:26;3.30;99.90
56725;DHT22;42608;52.776;6.968;2023-04-06T01:13:52;3.30;99.90
56725;DHT22;42608;52.776;6.968;2023-04-06T01:16:18;3.30;99.90
56725;DHT22;42608;52.776;6.968;2023-04-06T01:18:44;3.20;99.90
56725;DHT22;42608;52.776;6.968;2023-04-06T01:21:09;3.20;99.90
56725;DHT22;42608;52.776;6.968;2023-04-06T01:23:46;3.20;99.90
56725;DHT22;42608;52.776;6.968;2023-04-06T01:26:12;3.10;99.90
56725;DHT22;42608;52.776;6.968;2023-04-06T01:28:38;3.10;99.90
56725;DHT22;42608;52.776;6.968;2023-04-06T01:31:05;3.00;99.90
56725;DHT22;42608;52.776;6.968;2023-04-06T01:33:30;3.00;99.90
56725;DHT22;42608;52.776;6.968;2023-04-06T01:35:56;3.00;99.90
56725;DHT22;42608;52.776;6.968;2023-04-06T01:38:22;3.00;99.90
56725;DHT22;42608;52.776;6.968;2023-04-06T01:40:47;3.00;99.90
56725;DHT22;42608;52.776;6.968;2023-04-06T01:43:13;3.00;99.90
56725;DHT22;42608;52.776;6.968;2023-04-06T01:45:38;3.00;99.90
56725;DHT22;42608;52.776;6.968;2023-04-06T01:48:04;2.90;99.90
56725;DHT22;42608;52.776;6.968;2023-04-06T01:50:30;2.90;99.90
56725;DHT22;42608;52.776;6.968;2023-04-06T01:52:55;2.90;99.90
56725;DHT22;42608;52.776;6.968;2023-04-06T01:55:21;2.90;99.90
56725;DHT22;42608;52.776;6.968;2023-04-06T01:57:46;2.80;99.90
56725;DHT22;42608;52.776;6.968;2023-04-06T02:00:12;2.80;99.90
56725;DHT22;42608;52.776;6.968;2023-04-06T02:02:38;2.80;99.90
56725;DHT22;42608;52.776;6.968;2023-04-06T02:05:03;2.80;99.90
56725;DHT22;42608;52.776;6.968;2023-04-06T02:07:29;2.70;99.90
56725;DHT22;42608;52.776;6.968;2023-04-06T02:09:55;2.70;99.90
56725;DHT22;42608;52.776;6.968;2023-04-06T02:12:21;2.80;99.90
56725;DHT22;42608;52.776;6.968;2023-04-06T02:14:46;2.80;99.90
56725;DHT22;42608;52.776;6.968;2023-04-06T02:17:12;2.70;99.90
56725;DHT22;42608;52.776;6.968;2023-04-06T02:19:38;2.70;99.90
56725;DHT22;42608;52.776;6.968;2023-04-06T02:22:03;2.70;99.90
56725;DHT22;42608;52.776;6.968;2023-04-06T02:24:29;2.70;99.90
56725;DHT22;42608;52.776;6.968;2023-04-06T02:26:54;2.70;99.90
56725;DHT22;42608;52.776;6.968;2023-04-06T02:29:20;2.70;99.90
56725;DHT22;42608;52.776;6.968;2023-04-06T02:31:46;2.70;99.90
56725;DHT22;42608;52.776;6.968;2023-04-06T02:34:12;2.70;99.90
56725;DHT22;42608;52.776;6.968;2023-04-06T02:36:43;2.60;99.90
56725;DHT22;42608;52.776;6.968;2023-04-06T02:39:09;2.60;99.90
56725;DHT22;42608;52.776;6.968;2023-04-06T02:41:35;2.60;99.90
56725;DHT22;42608;52.776;6.968;2023-04-06T02:44:01;2.60;99.90
56725;DHT22;42608;52.776;6.968;2023-04-06T02:46:26;2.50;99.90
56725;DHT22;42608;52.776;6.968;2023-04-06T02:48:52;2.50;99.90
56725;DHT22;42608;52.776;6.968;2023-04-06T02:51:18;2.50;99.90
56725;DHT22;42608;52.776;6.968;2023-04-06T02:53:43;2.50;99.90
56725;DHT22;42608;52.776;6.968;2023-04-06T02:56:09;2.50;99.90
56725;DHT22;42608;52.776;6.968;2023-04-06T02:58:34;2.50;99.90
56725;DHT22;42608;52.776;6.968;2023-04-06T03:01:00;2.50;99.90
56725;DHT22;42608;52.776;6.968;2023-04-06T03:03:25;2.40;99.90
56725;DHT22;42608;52.776;6.968;2023-04-06T03:05:51;2.40;99.90
56725;DHT22;42608;52.776;6.968;2023-04-06T03:08:17;2.30;99.90
56725;DHT22;42608;52.776;6.968;2023-04-06T03:10:42;2.30;99.90
56725;DHT22;42608;52.776;6.968;2023-04-06T03:13:08;2.30;99.90
56725;DHT22;42608;52.776;6.968;2023-04-06T03:15:33;2.30;99.90
56725;DHT22;42608;52.776;6.968;2023-04-06T03:17:59;2.30;99.90
56725;DHT22;42608;52.776;6.968;2023-04-06T03:20:24;2.20;99.90
56725;DHT22;42608;52.776;6.968;2023-04-06T03:22:50;2.20;99.90
56725;DHT22;42608;52.776;6.968;2023-04-06T03:25:16;2.20;99.90
56725;DHT22;42608;52.776;6.968;2023-04-06T03:27:41;2.20;99.90
56725;DHT22;42608;52.776;6.968;2023-04-06T03:30:07;2.20;99.90
56725;DHT22;42608;52.776;6.968;2023-04-06T03:32:33;2.10;99.90
56725;DHT22;42608;52.776;6.968;2023-04-06T03:34:58;2.10;99.90
56725;DHT22;42608;52.776;6.968;2023-04-06T03:37:24;2.10;99.90
56725;DHT22;42608;52.776;6.968;2023-04-06T03:39:49;2.10;99.90
56725;DHT22;42608;52.776;6.968;2023-04-06T03:42:15;2.10;99.90
56725;DHT22;42608;52.776;6.968;2023-04-06T03:44:41;2.00;99.90
56725;DHT22;42608;52.776;6.968;2023-04-06T03:47:06;2.10;99.90
56725;DHT22;42608;52.776;6.968;2023-04-06T03:49:32;2.10;99.90
56725;DHT22;42608;52.776;6.968;2023-04-06T03:51:58;2.00;99.90
56725;DHT22;42608;52.776;6.968;2023-04-06T03:54:23;2.00;99.90
56725;DHT22;42608;52.776;6.968;2023-04-06T03:56:49;2.00;99.90
56725;DHT22;42608;52.776;6.968;2023-04-06T03:59:15;2.00;99.90
56725;DHT22;42608;52.776;6.968;2023-04-06T04:01:40;2.00;99.90
56725;DHT22;42608;52.776;6.968;2023-04-06T04:04:06;1.90;99.90
56725;DHT22;42608;52.776;6.968;2023-04-06T04:06:31;1.90;99.90
56725;DHT22;42608;52.776;6.968;2023-04-06T04:08:57;1.90;99.90
56725;DHT22;42608;52.776;6.968;2023-04-06T04:11:23;1.90;99.90
56725;DHT22;42608;52.776;6.968;2023-04-06T04:13:48;1.90;99.90
56725;DHT22;42608;52.776;6.968;2023-04-06T04:16:14;1.90;99.90
56725;DHT22;42608;52.776;6.968;2023-04-06T04:18:39;1.80;99.90
56725;DHT22;42608;52.776;6.968;2023-04-06T04:21:05;1.90;99.90
56725;DHT22;42608;52.776;6.968;2023-04-06T04:23:30;1.90;99.90
56725;DHT22;42608;52.776;6.968;2023-04-06T04:25:56;1.90;99.90
56725;DHT22;42608;52.776;6.968;2023-04-06T04:28:21;1.90;99.90
56725;DHT22;42608;52.776;6.968;2023-04-06T04:30:47;1.80;99.90
56725;DHT22;42608;52.776;6.968;2023-04-06T04:33:13;1.80;99.90
56725;DHT22;42608;52.776;6.968;2023-04-06T04:35:38;1.70;99.90
56725;DHT22;42608;52.776;6.968;2023-04-06T04:38:04;1.70;99.90
56725;DHT22;42608;52.776;6.968;2023-04-06T04:40:30;1.70;99.90
56725;DHT22;42608;52.776;6.968;2023-04-06T04:42:55;1.70;99.90
56725;DHT22;42608;52.776;6.968;2023-04-06T04:45:21;1.70;99.90
56725;DHT22;42608;52.776;6.968;2023-04-06T04:47:47;1.70;99.90
56725;DHT22;42608;52.776;6.968;2023-04-06T04:50:12;1.70;99.90
56725;DHT22;42608;52.776;6.968;2023-04-06T04:52:38;1.70;99.90
56725;DHT22;42608;52.776;6.968;2023-04-06T04:55:03;1.70;99.90
56725;DHT22;42608;52.776;6.968;2023-04-06T04:57:29;1.70;99.90
56725;DHT22;42608;52.776;6.968;2023-04-06T04:59:55;1.70;99.90
56725;DHT22;42608;52.776;6.968;2023-04-06T05:02:21;1.70;99.90
56725;DHT22;42608;52.776;6.968;2023-04-06T05:04:47;1.70;99.90
56725;DHT22;42608;52.776;6.968;2023-04-06T05:07:12;1.70;99.90
56725;DHT22;42608;52.776;6.968;2023-04-06T05:09:38;1.70;99.90
56725;DHT22;42608;52.776;6.968;2023-04-06T05:12:03;1.70;99.90
56725;DHT22;42608;52.776;6.968;2023-04-06T05:14:29;1.70;99.90
56725;DHT22;42608;52.776;6.968;2023-04-06T05:16:55;1.60;99.90
56725;DHT22;42608;52.776;6.968;2023-04-06T05:19:20;1.60;99.90
56725;DHT22;42608;52.776;6.968;2023-04-06T05:21:46;1.60;99.90
56725;DHT22;42608;52.776;6.968;2023-04-06T05:24:12;1.60;99.90
56725;DHT22;42608;52.776;6.968;2023-04-06T05:26:37;1.60;99.90
56725;DHT22;42608;52.776;6.968;2023-04-06T05:29:03;1.60;99.90
56725;DHT22;42608;52.776;6.968;2023-04-06T05:31:28;1.60;99.90
56725;DHT22;42608;52.776;6.968;2023-04-06T05:33:55;1.60;99.90
56725;DHT22;42608;52.776;6.968;2023-04-06T05:36:20;1.70;99.90
56725;DHT22;42608;52.776;6.968;2023-04-06T05:38:46;1.70;99.90
56725;DHT22;42608;52.776;6.968;2023-04-06T05:41:12;1.70;99.90
56725;DHT22;42608;52.776;6.968;2023-04-06T05:43:37;1.70;99.90
56725;DHT22;42608;52.776;6.968;2023-04-06T05:46:03;1.70;99.90
56725;DHT22;42608;52.776;6.968;2023-04-06T05:48:29;1.70;99.90
56725;DHT22;42608;52.776;6.968;2023-04-06T05:50:55;1.70;99.90
56725;DHT22;42608;52.776;6.968;2023-04-06T05:53:20;1.70;99.90
56725;DHT22;42608;52.776;6.968;2023-04-06T05:55:46;1.80;99.90
56725;DHT22;42608;52.776;6.968;2023-04-06T05:58:12;1.80;99.90
56725;DHT22;42608;52.776;6.968;2023-04-06T06:00:38;1.80;99.90
56725;DHT22;42608;52.776;6.968;2023-04-06T06:03:03;1.80;99.90
56725;DHT22;42608;52.776;6.968;2023-04-06T06:05:31;1.80;99.90
56725;DHT22;42608;52.776;6.968;2023-04-06T06:07:56;1.80;99.90
56725;DHT22;42608;52.776;6.968;2023-04-06T06:10:22;1.90;99.90
56725;DHT22;42608;52.776;6.968;2023-04-06T06:12:47;1.90;99.90
56725;DHT22;42608;52.776;6.968;2023-04-06T06:15:13;1.90;99.90
56725;DHT22;42608;52.776;6.968;2023-04-06T06:17:39;1.90;99.90
56725;DHT22;42608;52.776;6.968;2023-04-06T06:20:05;1.90;99.90
56725;DHT22;42608;52.776;6.968;2023-04-06T06:22:31;1.90;99.90
56725;DHT22;42608;52.776;6.968;2023-04-06T06:24:57;2.00;99.90
56725;DHT22;42608;52.776;6.968;2023-04-06T06:27:22;2.00;99.90
56725;DHT22;42608;52.776;6.968;2023-04-06T06:29:48;2.00;99.90
56725;DHT22;42608;52.776;6.968;2023-04-06T06:32:14;2.00;99.90
56725;DHT22;42608;52.776;6.968;2023-04-06T06:34:39;2.10;99.90
56725;DHT22;42608;52.776;6.968;2023-04-06T06:37:05;2.10;99.90
56725;DHT22;42608;52.776;6.968;2023-04-06T06:39:31;2.10;99.90
56725;DHT22;42608;52.776;6.968;2023-04-06T06:41:56;2.20;99.90
56725;DHT22;42608;52.776;6.968;2023-04-06T06:44:22;2.20;99.90
56725;DHT22;42608;52.776;6.968;2023-04-06T06:46:48;2.30;99.90
56725;DHT22;42608;52.776;6.968;2023-04-06T06:49:13;2.30;99.90
56725;DHT22;42608;52.776;6.968;2023-04-06T06:51:39;2.40;99.90
56725;DHT22;42608;52.776;6.968;2023-04-06T06:54:05;2.40;99.90
56725;DHT22;42608;52.776;6.968;2023-04-06T06:56:31;2.40;99.90
56725;DHT22;42608;52.776;6.968;2023-04-06T06:58:56;2.50;99.90
56725;DHT22;42608;52.776;6.968;2023-04-06T07:01:22;2.60;99.90
56725;DHT22;42608;52.776;6.968;2023-04-06T07:03:47;2.60;99.90
56725;DHT22;42608;52.776;6.968;2023-04-06T07:06:13;2.70;99.90
56725;DHT22;42608;52.776;6.968;2023-04-06T07:08:39;2.80;99.90
56725;DHT22;42608;52.776;6.968;2023-04-06T07:11:04;2.80;99.90
56725;DHT22;42608;52.776;6.968;2023-04-06T07:13:30;2.90;99.90
56725;DHT22;42608;52.776;6.968;2023-04-06T07:15:55;3.00;99.90
56725;DHT22;42608;52.776;6.968;2023-04-06T07:18:21;3.10;99.90
56725;DHT22;42608;52.776;6.968;2023-04-06T07:20:47;3.10;99.90
56725;DHT22;42608;52.776;6.968;2023-04-06T07:23:12;3.20;99.90
56725;DHT22;42608;52.776;6.968;2023-04-06T07:25:38;3.30;99.90
56725;DHT22;42608;52.776;6.968;2023-04-06T07:28:04;3.40;99.90
56725;DHT22;42608;52.776;6.968;2023-04-06T07:30:30;3.50;99.90
56725;DHT22;42608;52.776;6.968;2023-04-06T07:32:55;3.50;99.90
56725;DHT22;42608;52.776;6.968;2023-04-06T07:35:22;3.60;99.90
56725;DHT22;42608;52.776;6.968;2023-04-06T07:37:47;3.70;99.90
56725;DHT22;42608;52.776;6.968;2023-04-06T07:40:13;3.80;99.90
56725;DHT22;42608;52.776;6.968;2023-04-06T07:42:39;3.80;99.90
56725;DHT22;42608;52.776;6.968;2023-04-06T07:45:04;3.90;99.90
56725;DHT22;42608;52.776;6.968;2023-04-06T07:47:31;4.00;99.90
56725;DHT22;42608;52.776;6.968;2023-04-06T07:49:56;4.10;99.90
56725;DHT22;42608;52.776;6.968;2023-04-06T07:52:22;4.10;99.90
56725;DHT22;42608;52.776;6.968;2023-04-06T07:54:48;4.20;99.90
56725;DHT22;42608;52.776;6.968;2023-04-06T07:57:14;4.30;99.90
56725;DHT22;42608;52.776;6.968;2023-04-06T07:59:40;4.50;99.90
56725;DHT22;42608;52.776;6.968;2023-04-06T08:02:06;4.50;99.90
56725;DHT22;42608;52.776;6.968;2023-04-06T08:04:31;4.60;99.90
56725;DHT22;42608;52.776;6.968;2023-04-06T08:06:57;4.70;99.90
56725;DHT22;42608;52.776;6.968;2023-04-06T08:09:22;4.80;99.90
56725;DHT22;42608;52.776;6.968;2023-04-06T08:11:48;4.90;99.90
56725;DHT22;42608;52.776;6.968;2023-04-06T08:14:14;5.00;99.90
56725;DHT22;42608;52.776;6.968;2023-04-06T08:16:40;5.00;99.90
56725;DHT22;42608;52.776;6.968;2023-04-06T08:19:06;5.20;99.90
56725;DHT22;42608;52.776;6.968;2023-04-06T08:21:34;5.20;99.90
56725;DHT22;42608;52.776;6.968;2023-04-06T08:24:00;5.30;99.90
56725;DHT22;42608;52.776;6.968;2023-04-06T08:26:26;5.40;99.90
56725;DHT22;42608;52.776;6.968;2023-04-06T08:28:52;5.60;99.90
56725;DHT22;42608;52.776;6.968;2023-04-06T08:31:18;5.60;99.90
56725;DHT22;42608;52.776;6.968;2023-04-06T08:33:43;5.70;99.90
56725;DHT22;42608;52.776;6.968;2023-04-06T08:38:35;6.00;99.90
56725;DHT22;42608;52.776;6.968;2023-04-06T08:41:06;6.00;99.90
56725;DHT22;42608;52.776;6.968;2023-04-06T08:43:31;6.20;99.90
56725;DHT22;42608;52.776;6.968;2023-04-06T08:45:57;6.20;99.90
56725;DHT22;42608;52.776;6.968;2023-04-06T08:48:24;6.30;99.90
56725;DHT22;42608;52.776;6.968;2023-04-06T08:50:50;6.50;99.90
56725;DHT22;42608;52.776;6.968;2023-04-06T08:53:16;6.50;99.90
56725;DHT22;42608;52.776;6.968;2023-04-06T08:55:42;6.60;99.90
56725;DHT22;42608;52.776;6.968;2023-04-06T08:58:08;6.70;99.90
56725;DHT22;42608;52.776;6.968;2023-04-06T09:00:37;6.80;99.90
56725;DHT22;42608;52.776;6.968;2023-04-06T09:03:02;6.90;99.90
56725;DHT22;42608;52.776;6.968;2023-04-06T09:05:28;7.00;99.90
56725;DHT22;42608;52.776;6.968;2023-04-06T09:07:54;7.10;99.90
56725;DHT22;42608;52.776;6.968;2023-04-06T09:10:20;7.20;99.90
56725;DHT22;42608;52.776;6.968;2023-04-06T09:12:48;7.40;99.90
56725;DHT22;42608;52.776;6.968;2023-04-06T09:15:18;7.50;99.90
56725;DHT22;42608;52.776;6.968;2023-04-06T09:17:43;7.50;99.90
56725;DHT22;42608;52.776;6.968;2023-04-06T09:20:09;7.70;99.90
56725;DHT22;42608;52.776;6.968;2023-04-06T09:22:36;7.70;99.90
56725;DHT22;42608;52.776;6.968;2023-04-06T09:25:02;7.80;99.90
56725;DHT22;42608;52.776;6.968;2023-04-06T09:27:37;8.00;99.90
56725;DHT22;42608;52.776;6.968;2023-04-06T09:30:04;8.00;99.90
56725;DHT22;42608;52.776;6.968;2023-04-06T09:32:31;8.20;99.90
56725;DHT22;42608;52.776;6.968;2023-04-06T09:35:07;8.30;99.90
56725;DHT22;42608;52.776;6.968;2023-04-06T09:37:32;8.30;99.90
56725;DHT22;42608;52.776;6.968;2023-04-06T09:40:05;8.50;99.90
56725;DHT22;42608;52.776;6.968;2023-04-06T09:42:31;8.60;99.90
56725;DHT22;42608;52.776;6.968;2023-04-06T09:44:56;8.70;99.90
56725;DHT22;42608;52.776;6.968;2023-04-06T09:47:22;8.80;99.90
56725;DHT22;42608;52.776;6.968;2023-04-06T09:49:54;9.00;99.80
56725;DHT22;42608;52.776;6.968;2023-04-06T09:52:20;9.10;99.60
56725;DHT22;42608;52.776;6.968;2023-04-06T09:54:47;9.10;99.10
56725;DHT22;42608;52.776;6.968;2023-04-06T09:59:44;9.30;98.80
56725;DHT22;42608;52.776;6.968;2023-04-06T10:07:32;9.50;98.90
56725;DHT22;42608;52.776;6.968;2023-04-06T10:09:58;9.60;98.50
56725;DHT22;42608;52.776;6.968;2023-04-06T10:12:24;9.70;98.50
56725;DHT22;42608;52.776;6.968;2023-04-06T10:14:50;9.70;98.60
56725;DHT22;42608;52.776;6.968;2023-04-06T10:17:16;9.80;97.80
56725;DHT22;42608;52.776;6.968;2023-04-06T10:19:44;9.80;97.20
56725;DHT22;42608;52.776;6.968;2023-04-06T10:22:12;9.90;96.90
56725;DHT22;42608;52.776;6.968;2023-04-06T10:24:40;10.00;96.50
56725;DHT22;42608;52.776;6.968;2023-04-06T10:27:06;10.10;96.40
56725;DHT22;42608;52.776;6.968;2023-04-06T10:29:46;10.10;95.80
56725;DHT22;42608;52.776;6.968;2023-04-06T10:32:13;10.10;95.80
56725;DHT22;42608;52.776;6.968;2023-04-06T10:34:39;10.10;95.10
56725;DHT22;42608;52.776;6.968;2023-04-06T10:37:14;10.20;95.20
56725;DHT22;42608;52.776;6.968;2023-04-06T10:39:46;10.20;95.00
56725;DHT22;42608;52.776;6.968;2023-04-06T10:42:12;10.30;94.50
56725;DHT22;42608;52.776;6.968;2023-04-06T10:44:42;10.50;93.10
56725;DHT22;42608;52.776;6.968;2023-04-06T10:47:15;10.60;92.70
56725;DHT22;42608;52.776;6.968;2023-04-06T10:49:41;10.70;91.60
56725;DHT22;42608;52.776;6.968;2023-04-06T10:52:06;10.70;91.80
56725;DHT22;42608;52.776;6.968;2023-04-06T10:54:32;10.80;92.00
56725;DHT22;42608;52.776;6.968;2023-04-06T10:56:58;10.90;91.30
56725;DHT22;42608;52.776;6.968;2023-04-06T10:59:23;10.90;90.50
56725;DHT22;42608;52.776;6.968;2023-04-06T11:01:50;11.00;90.40
56725;DHT22;42608;52.776;6.968;2023-04-06T11:04:19;11.00;90.20
56725;DHT22;42608;52.776;6.968;2023-04-06T11:06:49;11.10;90.40
56725;DHT22;42608;52.776;6.968;2023-04-06T11:09:29;11.10;90.20
56725;DHT22;42608;52.776;6.968;2023-04-06T11:11:55;11.10;90.10
56725;DHT22;42608;52.776;6.968;2023-04-06T11:14:22;11.20;90.20
56725;DHT22;42608;52.776;6.968;2023-04-06T11:16:47;11.20;90.00
56725;DHT22;42608;52.776;6.968;2023-04-06T11:19:16;11.30;90.70
56725;DHT22;42608;52.776;6.968;2023-04-06T11:21:46;11.50;91.00
56725;DHT22;42608;52.776;6.968;2023-04-06T11:24:15;11.70;90.20
56725;DHT22;42608;52.776;6.968;2023-04-06T11:26:42;11.70;90.00
56725;DHT22;42608;52.776;6.968;2023-04-06T11:29:09;11.70;88.20
56725;DHT22;42608;52.776;6.968;2023-04-06T11:31:39;11.80;86.20
56725;DHT22;42608;52.776;6.968;2023-04-06T11:34:09;11.70;85.70
56725;DHT22;42608;52.776;6.968;2023-04-06T11:36:35;11.70;88.00
56725;DHT22;42608;52.776;6.968;2023-04-06T11:39:02;11.80;87.30
56725;DHT22;42608;52.776;6.968;2023-04-06T11:41:28;11.80;82.50
56725;DHT22;42608;52.776;6.968;2023-04-06T11:43:55;11.80;80.30
56725;DHT22;42608;52.776;6.968;2023-04-06T11:46:21;11.90;79.70
56725;DHT22;42608;52.776;6.968;2023-04-06T11:48:47;11.80;80.10
56725;DHT22;42608;52.776;6.968;2023-04-06T11:51:12;11.80;80.70
56725;DHT22;42608;52.776;6.968;2023-04-06T11:53:46;11.90;81.20
56725;DHT22;42608;52.776;6.968;2023-04-06T11:56:27;11.90;81.20
56725;DHT22;42608;52.776;6.968;2023-04-06T11:58:56;11.90;81.10
56725;DHT22;42608;52.776;6.968;2023-04-06T12:01:22;12.00;81.60
56725;DHT22;42608;52.776;6.968;2023-04-06T12:03:48;12.10;80.50
56725;DHT22;42608;52.776;6.968;2023-04-06T12:06:14;12.10;81.10
56725;DHT22;42608;52.776;6.968;2023-04-06T12:08:40;12.20;81.80
56725;DHT22;42608;52.776;6.968;2023-04-06T12:11:06;12.20;81.30
56725;DHT22;42608;52.776;6.968;2023-04-06T12:13:31;12.20;82.00
56725;DHT22;42608;52.776;6.968;2023-04-06T12:15:57;12.30;82.10
56725;DHT22;42608;52.776;6.968;2023-04-06T12:18:22;12.30;81.40
56725;DHT22;42608;52.776;6.968;2023-04-06T12:20:48;12.40;81.00
56725;DHT22;42608;52.776;6.968;2023-04-06T12:23:13;12.40;79.40
56725;DHT22;42608;52.776;6.968;2023-04-06T12:25:39;12.40;79.10
56725;DHT22;42608;52.776;6.968;2023-04-06T12:28:06;12.40;78.50
56725;DHT22;42608;52.776;6.968;2023-04-06T12:30:31;12.50;75.80
56725;DHT22;42608;52.776;6.968;2023-04-06T12:32:57;12.50;75.70
56725;DHT22;42608;52.776;6.968;2023-04-06T12:35:23;12.50;76.20
56725;DHT22;42608;52.776;6.968;2023-04-06T12:37:48;12.60;76.00
56725;DHT22;42608;52.776;6.968;2023-04-06T12:40:14;12.60;76.10
56725;DHT22;42608;52.776;6.968;2023-04-06T12:42:40;12.70;75.50
56725;DHT22;42608;52.776;6.968;2023-04-06T12:45:07;12.70;74.50
56725;DHT22;42608;52.776;6.968;2023-04-06T12:47:33;12.70;73.90
56725;DHT22;42608;52.776;6.968;2023-04-06T12:49:58;12.80;73.20
56725;DHT22;42608;52.776;6.968;2023-04-06T12:52:24;12.80;73.60
56725;DHT22;42608;52.776;6.968;2023-04-06T12:54:50;12.80;72.10
56725;DHT22;42608;52.776;6.968;2023-04-06T12:57:16;12.80;71.60
56725;DHT22;42608;52.776;6.968;2023-04-06T12:59:45;12.90;72.50
56725;DHT22;42608;52.776;6.968;2023-04-06T13:02:11;12.90;72.50
56725;DHT22;42608;52.776;6.968;2023-04-06T13:04:37;12.90;71.50
56725;DHT22;42608;52.776;6.968;2023-04-06T13:07:02;12.90;70.60
56725;DHT22;42608;52.776;6.968;2023-04-06T13:09:28;12.80;70.90
56725;DHT22;42608;52.776;6.968;2023-04-06T13:11:53;12.80;70.70
56725;DHT22;42608;52.776;6.968;2023-04-06T13:14:19;12.80;71.60
56725;DHT22;42608;52.776;6.968;2023-04-06T13:16:46;12.80;71.20
56725;DHT22;42608;52.776;6.968;2023-04-06T13:19:11;12.80;70.80
56725;DHT22;42608;52.776;6.968;2023-04-06T13:21:37;12.90;71.20
56725;DHT22;42608;52.776;6.968;2023-04-06T13:24:02;12.90;71.10
56725;DHT22;42608;52.776;6.968;2023-04-06T13:26:30;12.90;71.00
56725;DHT22;42608;52.776;6.968;2023-04-06T13:28:55;13.00;71.10
56725;DHT22;42608;52.776;6.968;2023-04-06T13:31:22;13.00;70.00
56725;DHT22;42608;52.776;6.968;2023-04-06T13:33:47;13.00;69.30
56725;DHT22;42608;52.776;6.968;2023-04-06T13:36:13;13.00;69.80
56725;DHT22;42608;52.776;6.968;2023-04-06T13:38:39;13.00;70.10
56725;DHT22;42608;52.776;6.968;2023-04-06T13:41:04;13.00;69.50
56725;DHT22;42608;52.776;6.968;2023-04-06T13:43:30;13.00;69.60
56725;DHT22;42608;52.776;6.968;2023-04-06T13:45:57;13.00;70.40
56725;DHT22;42608;52.776;6.968;2023-04-06T13:48:25;13.00;70.30
56725;DHT22;42608;52.776;6.968;2023-04-06T13:50:51;13.00;70.00
56725;DHT22;42608;52.776;6.968;2023-04-06T13:53:17;13.00;69.90
56725;DHT22;42608;52.776;6.968;2023-04-06T13:55:43;13.00;70.40
56725;DHT22;42608;52.776;6.968;2023-04-06T13:58:09;13.00;70.90
56725;DHT22;42608;52.776;6.968;2023-04-06T14:00:35;13.10;70.80
56725;DHT22;42608;52.776;6.968;2023-04-06T14:03:01;13.10;70.00
56725;DHT22;42608;52.776;6.968;2023-04-06T14:05:31;13.10;70.70
56725;DHT22;42608;52.776;6.968;2023-04-06T14:07:56;13.20;71.30
56725;DHT22;42608;52.776;6.968;2023-04-06T14:10:22;13.20;70.50
56725;DHT22;42608;52.776;6.968;2023-04-06T14:12:49;13.20;70.00
56725;DHT22;42608;52.776;6.968;2023-04-06T14:15:15;13.20;70.90
56725;DHT22;42608;52.776;6.968;2023-04-06T14:17:40;13.20;71.10
56725;DHT22;42608;52.776;6.968;2023-04-06T14:20:07;13.30;71.10
56725;DHT22;42608;52.776;6.968;2023-04-06T14:22:33;13.30;70.90
56725;DHT22;42608;52.776;6.968;2023-04-06T14:24:58;13.20;71.40
56725;DHT22;42608;52.776;6.968;2023-04-06T14:27:25;13.20;71.30
56725;DHT22;42608;52.776;6.968;2023-04-06T14:29:50;13.10;71.70
56725;DHT22;42608;52.776;6.968;2023-04-06T14:32:16;13.10;72.40
56725;DHT22;42608;52.776;6.968;2023-04-06T14:34:42;13.10;72.70
56725;DHT22;42608;52.776;6.968;2023-04-06T14:37:08;13.00;72.10
56725;DHT22;42608;52.776;6.968;2023-04-06T14:39:33;12.90;72.50
56725;DHT22;42608;52.776;6.968;2023-04-06T14:41:59;12.90;73.00
56725;DHT22;42608;52.776;6.968;2023-04-06T14:44:25;12.80;73.10
56725;DHT22;42608;52.776;6.968;2023-04-06T14:46:51;12.90;72.90
56725;DHT22;42608;52.776;6.968;2023-04-06T14:49:17;12.90;73.20
56725;DHT22;42608;52.776;6.968;2023-04-06T14:51:42;12.80;73.70
56725;DHT22;42608;52.776;6.968;2023-04-06T14:54:08;12.80;73.80
56725;DHT22;42608;52.776;6.968;2023-04-06T14:56:34;12.80;73.40
56725;DHT22;42608;52.776;6.968;2023-04-06T14:59:00;12.70;74.00
56725;DHT22;42608;52.776;6.968;2023-04-06T15:01:27;12.70;74.80
56725;DHT22;42608;52.776;6.968;2023-04-06T15:03:53;12.60;75.10
56725;DHT22;42608;52.776;6.968;2023-04-06T15:06:19;12.60;75.50
56725;DHT22;42608;52.776;6.968;2023-04-06T15:08:47;12.60;75.80
56725;DHT22;42608;52.776;6.968;2023-04-06T15:11:13;12.50;75.80
56725;DHT22;42608;52.776;6.968;2023-04-06T15:13:39;12.50;76.50
56725;DHT22;42608;52.776;6.968;2023-04-06T15:16:06;12.50;77.50
56725;DHT22;42608;52.776;6.968;2023-04-06T15:18:31;12.40;77.80
56725;DHT22;42608;52.776;6.968;2023-04-06T15:20:57;12.40;77.80
56725;DHT22;42608;52.776;6.968;2023-04-06T15:23:22;12.40;78.10
56725;DHT22;42608;52.776;6.968;2023-04-06T15:25:48;12.30;79.10
56725;DHT22;42608;52.776;6.968;2023-04-06T15:28:14;12.30;79.60
56725;DHT22;42608;52.776;6.968;2023-04-06T15:30:39;12.30;80.40
56725;DHT22;42608;52.776;6.968;2023-04-06T15:33:06;12.20;81.60
56725;DHT22;42608;52.776;6.968;2023-04-06T15:35:32;12.30;81.90
56725;DHT22;42608;52.776;6.968;2023-04-06T15:37:59;12.30;82.80
56725;DHT22;42608;52.776;6.968;2023-04-06T15:40:25;12.10;83.40
56725;DHT22;42608;52.776;6.968;2023-04-06T15:42:51;12.20;84.40